createdAt,value
2017-12-19T00:00:02.029Z,86.92
2017-12-19T00:02:28.544Z,87.23
2017-12-19T00:04:55.000Z,87.22
2017-12-19T00:07:21.435Z,87.19
2017-12-19T00:09:47.870Z,86.98
2017-12-19T00:12:14.406Z,87.29
2017-12-19T00:14:41.456Z,86.92
2017-12-19T00:17:07.993Z,87.23
2017-12-19T00:19:34.434Z,87.74
2017-12-19T00:22:00.986Z,87.74
2017-12-19T00:24:27.399Z,87.85
2017-12-19T00:26:53.833Z,87.94
2017-12-19T00:29:20.275Z,88.24
2017-12-19T00:31:47.396Z,87.98
2017-12-19T00:34:13.840Z,88.07
2017-12-19T00:36:40.257Z,88.11
2017-12-19T00:39:06.698Z,88.08
2017-12-19T00:41:33.157Z,88.23
2017-12-19T00:43:59.694Z,88.26
2017-12-19T00:46:26.128Z,88.64
2017-12-19T00:48:53.383Z,88.35
2017-12-19T00:51:19.920Z,88.37
2017-12-19T00:53:46.285Z,88.38
2017-12-19T00:56:12.686Z,88.42
2017-12-19T00:58:39.121Z,88.64
2017-12-19T01:01:05.651Z,88.47
2017-12-19T01:03:32.092Z,88.78
2017-12-19T01:05:59.244Z,88.58
2017-12-19T01:08:25.679Z,88.83
2017-12-19T01:10:52.195Z,88.71
2017-12-19T01:13:18.650Z,88.77
2017-12-19T01:15:44.983Z,88.96
2017-12-19T01:18:11.395Z,88.77
2017-12-19T01:20:37.955Z,88.99
2017-12-19T01:23:04.900Z,88.65
2017-12-19T01:25:31.398Z,88.24
2017-12-19T01:27:57.736Z,89.06
2017-12-19T01:30:24.211Z,89.17
2017-12-19T01:32:50.620Z,89.16
2017-12-19T01:35:16.975Z,89.12
2017-12-19T01:37:43.409Z,88.42
2017-12-19T01:40:10.646Z,88.68
2017-12-19T01:42:36.994Z,89.25
2017-12-19T01:45:03.431Z,88.84
2017-12-19T01:47:29.862Z,88.51
2017-12-19T01:49:56.230Z,88.35
2017-12-19T01:52:22.730Z,88.54
2017-12-19T01:54:49.272Z,88.93
2017-12-19T01:57:16.418Z,88.82
2017-12-19T01:59:42.853Z,88.78
2017-12-19T02:02:09.390Z,88.78
2017-12-19T02:04:35.817Z,88.19
2017-12-19T02:07:02.260Z,88.22
2017-12-19T02:09:28.675Z,88.35
2017-12-19T02:11:55.230Z,87.98
2017-12-19T02:14:22.213Z,87.85
2017-12-19T02:16:48.612Z,87.93
2017-12-19T02:19:14.943Z,87.89
2017-12-19T02:21:41.481Z,88.31
2017-12-19T02:24:07.915Z,88.21
2017-12-19T02:26:34.288Z,88.05
2017-12-19T02:29:00.683Z,88.12
2017-12-19T02:31:27.834Z,87.73
2017-12-19T02:33:54.203Z,87.89
2017-12-19T02:36:20.601Z,88.01
2017-12-19T02:38:46.933Z,87.92
2017-12-19T02:41:13.469Z,88.09
2017-12-19T02:43:39.904Z,88.05
2017-12-19T02:46:06.272Z,88.29
2017-12-19T02:48:33.490Z,88.21
2017-12-19T02:51:00.027Z,87.71
2017-12-19T02:53:26.462Z,87.85
2017-12-19T02:55:52.897Z,87.59
2017-12-19T02:58:19.331Z,87.86
2017-12-19T03:00:45.868Z,87.76
2017-12-19T03:03:12.234Z,87.77
2017-12-19T03:05:39.390Z,88.05
2017-12-19T03:08:05.786Z,88.32
2017-12-19T03:10:32.257Z,88.45
2017-12-19T03:12:58.655Z,88.35
2017-12-19T03:15:25.095Z,88.04
2017-12-19T03:17:51.524Z,88.08
2017-12-19T03:20:17.960Z,87.79
2017-12-19T03:22:45.109Z,87.63
2017-12-19T03:25:11.545Z,87.34
2017-12-19T03:27:37.982Z,87.30
2017-12-19T03:30:04.417Z,86.95
2017-12-19T03:32:30.850Z,87.45
2017-12-19T03:34:57.284Z,87.76
2017-12-19T03:37:23.717Z,87.88
2017-12-19T03:39:50.869Z,88.02
2017-12-19T03:42:17.406Z,88.10
2017-12-19T03:44:43.841Z,88.17
2017-12-19T03:47:10.209Z,88.22
2017-12-19T03:49:36.607Z,87.37
2017-12-19T03:52:03.143Z,87.36
2017-12-19T03:54:29.579Z,88.05
2017-12-19T03:56:56.834Z,88.06
2017-12-19T03:59:23.268Z,87.84
2017-12-19T04:01:49.805Z,88.22
2017-12-19T04:04:16.240Z,87.85
2017-12-19T04:06:42.674Z,87.82
2017-12-19T04:09:09.210Z,88.07
2017-12-19T04:11:35.747Z,88.30
2017-12-19T04:14:02.899Z,88.27
2017-12-19T04:16:29.333Z,88.26
2017-12-19T04:18:55.770Z,88.06
2017-12-19T04:21:22.238Z,88.15
2017-12-19T04:23:48.638Z,88.11
2017-12-19T04:26:15.071Z,88.27
2017-12-19T04:28:41.489Z,88.43
2017-12-19T04:31:08.633Z,88.37
2017-12-19T04:33:35.092Z,88.17
2017-12-19T04:36:01.533Z,88.33
2017-12-19T04:38:27.963Z,88.54
2017-12-19T04:40:54.498Z,88.68
2017-12-19T04:43:20.934Z,89.03
2017-12-19T04:45:47.367Z,88.64
2017-12-19T04:48:14.500Z,88.74
2017-12-19T04:50:41.057Z,88.39
2017-12-19T04:53:07.584Z,88.46
2017-12-19T04:55:34.027Z,88.78
2017-12-19T04:58:00.465Z,88.43
2017-12-19T05:00:26.897Z,88.46
2017-12-19T05:02:53.333Z,88.65
2017-12-19T05:05:20.468Z,88.43
2017-12-19T05:07:46.919Z,88.40
2017-12-19T05:10:13.359Z,87.97
2017-12-19T05:12:39.769Z,88.08
2017-12-19T05:15:06.211Z,87.47
2017-12-19T05:17:32.656Z,87.73
2017-12-19T05:19:59.089Z,87.87
2017-12-19T05:22:26.344Z,87.69
2017-12-19T05:24:52.779Z,87.62
2017-12-19T05:27:19.199Z,87.73
2017-12-19T05:29:45.649Z,87.91
2017-12-19T05:32:12.184Z,88.11
2017-12-19T05:34:38.619Z,88.32
2017-12-19T05:37:05.054Z,88.42
2017-12-19T05:39:32.206Z,88.69
2017-12-19T05:41:58.741Z,89.05
2017-12-19T05:44:25.177Z,88.76
2017-12-19T05:46:51.614Z,88.82
2017-12-19T05:49:18.052Z,88.28
2017-12-19T05:51:44.569Z,87.92
2017-12-19T05:54:10.916Z,87.68
2017-12-19T05:56:38.169Z,87.61
2017-12-19T05:59:04.603Z,86.85
2017-12-19T06:01:31.147Z,86.76
2017-12-19T06:03:57.577Z,87.14
2017-12-19T06:06:24.012Z,87.20
2017-12-19T06:08:50.445Z,87.01
2017-12-19T06:11:16.879Z,86.86
2017-12-19T06:13:44.030Z,86.99
2017-12-19T06:16:10.465Z,86.93
2017-12-19T06:18:36.901Z,86.71
2017-12-19T06:21:03.439Z,86.14
2017-12-19T06:23:29.870Z,85.58
2017-12-19T06:25:56.251Z,85.26
2017-12-19T06:28:22.594Z,85.90
2017-12-19T06:30:49.862Z,86.24
2017-12-19T06:33:16.306Z,86.29
2017-12-19T06:35:42.756Z,85.82
2017-12-19T06:38:09.297Z,85.74
2017-12-19T06:40:35.835Z,85.70
2017-12-19T06:43:02.201Z,85.62
2017-12-19T06:45:28.602Z,85.35
2017-12-19T06:47:55.754Z,85.43
2017-12-19T06:50:22.188Z,85.83
2017-12-19T06:52:48.624Z,86.14
2017-12-19T06:55:15.056Z,85.64
2017-12-19T06:57:41.492Z,84.70
2017-12-19T07:00:07.928Z,84.95
2017-12-19T07:02:34.362Z,84.80
2017-12-19T07:05:01.615Z,84.60
2017-12-19T07:07:28.053Z,84.42
2017-12-19T07:09:54.484Z,84.57
2017-12-19T07:12:20.921Z,84.73
2017-12-19T07:14:47.865Z,84.73
2017-12-19T07:17:14.390Z,84.01
2017-12-19T07:19:40.826Z,84.22
2017-12-19T07:22:07.479Z,84.63
2017-12-19T07:24:33.911Z,84.93
2017-12-19T07:27:00.344Z,84.34
2017-12-19T07:29:27.393Z,84.80
2017-12-19T07:31:53.931Z,85.18
2017-12-19T07:34:20.365Z,85.69
2017-12-19T07:36:46.994Z,86.12
2017-12-19T07:39:13.339Z,86.39
2017-12-19T07:41:39.874Z,84.87
2017-12-19T07:44:06.309Z,84.72
2017-12-19T07:46:32.743Z,83.77
2017-12-19T07:48:59.280Z,83.87
2017-12-19T07:51:25.801Z,83.52
2017-12-19T07:53:52.188Z,82.81
2017-12-19T07:56:18.582Z,83.11
2017-12-19T07:58:45.018Z,83.01
2017-12-19T08:01:11.760Z,82.89
2017-12-19T08:03:38.258Z,83.11
2017-12-19T08:06:04.838Z,82.02
2017-12-19T08:08:31.305Z,81.99
2017-12-19T08:10:57.783Z,82.42
2017-12-19T08:13:24.182Z,82.27
2017-12-19T08:15:50.541Z,81.57
2017-12-19T08:18:16.944Z,80.97
2017-12-19T08:20:43.424Z,80.07
2017-12-19T08:23:09.884Z,79.53
2017-12-19T08:25:36.309Z,79.71
2017-12-19T08:28:02.747Z,80.29
2017-12-19T08:30:29.282Z,80.37
2017-12-19T08:32:55.716Z,79.63
2017-12-19T08:35:22.156Z,80.26
2017-12-19T08:37:48.572Z,78.91
2017-12-19T08:40:15.020Z,78.58
2017-12-19T08:42:41.557Z,78.01
2017-12-19T08:45:07.994Z,78.32
2017-12-19T08:47:34.531Z,77.24
2017-12-19T08:50:00.855Z,77.60
2017-12-19T08:52:27.397Z,78.03
2017-12-19T08:54:53.833Z,79.11
2017-12-19T08:57:20.202Z,78.42
2017-12-19T08:59:46.599Z,79.30
2017-12-19T09:02:13.136Z,78.77
2017-12-19T09:04:39.571Z,78.50
2017-12-19T09:07:06.006Z,79.08
2017-12-19T09:09:32.441Z,79.14
2017-12-19T09:11:58.875Z,78.52
2017-12-19T09:14:25.317Z,78.37
2017-12-19T09:16:51.744Z,78.26
2017-12-19T09:19:18.109Z,77.92
2017-12-19T09:21:44.614Z,78.18
2017-12-19T09:24:11.049Z,78.85
2017-12-19T09:26:37.584Z,78.94
2017-12-19T09:29:03.941Z,79.01
2017-12-19T09:31:30.455Z,79.51
2017-12-19T09:33:56.761Z,80.09
2017-12-19T09:36:23.207Z,80.09
2017-12-19T09:38:49.655Z,79.63
2017-12-19T09:41:16.123Z,79.38
2017-12-19T09:43:42.525Z,80.03
2017-12-19T09:46:08.856Z,80.30
2017-12-19T09:48:35.290Z,80.70
2017-12-19T09:51:01.827Z,79.57
2017-12-19T09:53:28.198Z,80.04
2017-12-19T09:55:54.596Z,79.44
2017-12-19T09:58:21.031Z,80.12
2017-12-19T10:00:47.566Z,79.46
2017-12-19T10:03:14.137Z,79.37
2017-12-19T10:05:40.537Z,79.88
2017-12-19T10:08:06.869Z,79.95
2017-12-19T10:10:33.389Z,80.05
2017-12-19T10:12:59.831Z,79.64
2017-12-19T10:15:26.274Z,79.56
2017-12-19T10:17:52.714Z,79.66
2017-12-19T10:20:19.145Z,79.68
2017-12-19T10:22:45.583Z,79.93
2017-12-19T10:25:12.015Z,80.11
2017-12-19T10:27:38.450Z,80.21
2017-12-19T10:30:04.779Z,79.67
2017-12-19T10:32:31.318Z,80.74
2017-12-19T10:34:57.857Z,81.08
2017-12-19T10:37:24.292Z,81.37
2017-12-19T10:39:50.827Z,81.92
2017-12-19T10:42:17.366Z,81.87
2017-12-19T10:44:43.799Z,82.04
2017-12-19T10:47:10.170Z,82.37
